Etusivu
METAR-TAF:

METAR-TAF

Lentoasemat :

Kalmarin lentoasema

Kalmar, Ruotsi

Leveyspiiri: 56-44N, Pituuspiiri: 016-18E, korkeus merenpinnasta: 16 m

Tämänhetkinen sää

Tämä raportti tehtiin 20 minuuttia sitten, kello 15.50 UTC
Tuuli 6 kn etelästä/kaakosta
Lämpötila 17°C
Kosteus 88%
Ilmanpaine 1020 hPa
Näkyvyys 10 km tai enemmän
Muutamia pilviä 1100 ft:n korkeudessa
Pilvistä 1500 ft:n korkeudessa

METAR: ESMQ 241550Z 15006KT 9999 FEW011 OVC015 17/15 Q1020

Aika: 18:10 (16:10 UTC)

Sääennuste

Tämä raportti tehtiin 1 tunti ja 40 minuuttia sitten, kello 14.30 UTC
Ennuste voimassa 24. päivästä klo 15 UTC - 24. päivään klo 18 UTC
Tuuli 5 kn etelästä/kaakosta
Näkyvyys 10 km tai enemmän
Hajonneita pilviä 1200 ft:n korkeudessa
Todennäköisyys 40%
24. päivästä klo 15 UTC - 24. päivään klo 18 UTC
Hajanaisia pilviä 1500 ft:n korkeudessa

TAF: ESMQ 241430Z 2415/2418 16005KT 9999 BKN012 PROB40 2415/2418 SCT015

Säähavainnot ja -ennusteet yli 4000 lentoasemalta (METAR- ja TAF-raportit).

Käytössä olevat sääasemat on merkitty karttaan keltaisilla ja punaisilla pisteillä.

Aseta hiiri pisteen päälle nähdäksesi sääaseman nimen.

Klikkaa sitten nähdäksesi säähavainnot ja -ennusteet.

Kartan vaihtaminen: klikkaa mustalla rastilla varustettuja vihreitä pisteitä, niin voit zoomata sisään; viivalla varustettua vihreää pistettä, niin voit zoomata ulos tai vihreitä nuolia, niin pääset viereisille kartoille.


METAR-TAF: